Time;durP1;ratioP1;P1;durP2;ratioP2;P2;SDS_P1;SDS_P2;PMS_P1;PMS_P2;Temp;Humidity;BMP_temperature;BMP_pressure;BME280_temperature;BME280_humidity;BME280_pressure;Samples;Min_cycle;Max_cycle;Signal;HPM_P1;HPM_P2
2021/01/28 00:01:58;;;;;;;63.17;26.33;;;10.90;80.70;;;;;;5031271;28;20029;-67
2021/01/28 00:04:24;;;;;;;52.10;25.65;;;10.90;80.70;;;;;;5046760;28;20039;-67
2021/01/28 00:06:49;;;;;;;53.00;26.02;;;11.00;80.70;;;;;;5027841;28;20437;-66
2021/01/28 00:09:15;;;;;;;58.28;24.75;;;11.00;80.70;;;;;;5050084;28;20128;-65
2021/01/28 00:11:40;;;;;;;57.78;25.52;;;11.00;80.70;;;;;;5041101;28;20048;-66
2021/01/28 00:14:06;;;;;;;59.78;22.98;;;11.00;80.60;;;;;;5047046;28;20378;-66
2021/01/28 00:16:32;;;;;;;51.65;24.55;;;11.00;80.60;;;;;;5049968;28;20033;-65
2021/01/28 00:18:57;;;;;;;52.25;24.83;;;11.00;80.50;;;;;;5042610;28;20480;-67
2021/01/28 00:21:23;;;;;;;54.40;23.70;;;11.00;80.30;;;;;;5040932;28;20092;-67
2021/01/28 00:23:49;;;;;;;56.92;23.90;;;11.00;80.20;;;;;;5037941;28;20030;-69
2021/01/28 00:26:16;;;;;;;64.72;27.80;;;11.00;80.30;;;;;;5043625;28;20043;-67
2021/01/28 00:28:41;;;;;;;59.20;25.05;;;11.00;80.20;;;;;;5018443;28;20379;-69
2021/01/28 00:31:07;;;;;;;48.85;23.27;;;11.00;80.10;;;;;;5014797;28;20033;-66
2021/01/28 00:33:33;;;;;;;61.60;26.63;;;11.00;80.00;;;;;;5046988;28;20038;-66
2021/01/28 00:35:58;;;;;;;52.10;21.45;;;11.10;79.80;;;;;;5048516;28;20076;-66
2021/01/28 00:38:30;;;;;;;53.25;24.35;;;11.10;79.60;;;;;;5017852;28;20036;-66
2021/01/28 00:40:56;;;;;;;53.38;25.73;;;11.20;79.40;;;;;;5039581;28;20033;-66
2021/01/28 00:43:23;;;;;;;62.75;24.20;;;11.20;79.40;;;;;;5048110;28;20493;-70
2021/01/28 00:45:49;;;;;;;63.47;27.20;;;11.20;79.30;;;;;;5049732;28;20032;-66
2021/01/28 00:48:16;;;;;;;55.15;24.13;;;11.20;79.30;;;;;;5035017;28;20111;-66
2021/01/28 00:50:43;;;;;;;51.53;24.83;;;11.20;79.20;;;;;;5034355;28;20436;-66
2021/01/28 00:53:13;;;;;;;56.60;24.92;;;11.20;79.10;;;;;;5037320;28;20029;-66
2021/01/28 00:55:40;;;;;;;58.03;25.25;;;11.20;79.10;;;;;;5028637;28;20112;-67
2021/01/28 00:58:06;;;;;;;50.85;24.67;;;11.10;79.60;;;;;;5035466;28;20553;-66
2021/01/28 01:00:36;;;;;;;61.58;23.55;;;11.20;79.40;;;;;;5035286;28;20029;-66
2021/01/28 01:03:03;;;;;;;46.97;21.40;;;11.20;79.20;;;;;;5047945;28;20017;-66
2021/01/28 01:05:34;;;;;;;48.10;22.30;;;11.20;79.10;;;;;;5041487;28;20039;-66
2021/01/28 01:08:02;;;;;;;70.63;24.45;;;11.30;79.00;;;;;;5043688;28;20049;-66
2021/01/28 01:10:49;;;;;;;68.13;26.20;;;11.30;78.80;;;;;;5041786;28;20036;-66
2021/01/28 01:13:23;;;;;;;53.58;25.25;;;11.30;78.70;;;;;;5040690;28;20025;-67
2021/01/28 01:15:49;;;;;;;71.90;26.02;;;11.20;78.90;;;;;;5012863;28;20046;-66
2021/01/28 01:18:18;;;;;;;67.55;24.20;;;11.20;79.10;;;;;;5021626;28;20024;-71
2021/01/28 01:20:45;;;;;;;61.58;24.52;;;11.20;79.20;;;;;;5048189;28;20044;-66
2021/01/28 01:23:11;;;;;;;50.50;20.02;;;11.20;79.20;;;;;;5043653;28;20542;-67
2021/01/28 01:25:37;;;;;;;56.88;23.33;;;11.20;79.20;;;;;;5050175;28;20052;-67
2021/01/28 01:28:03;;;;;;;55.05;25.35;;;11.20;79.30;;;;;;5038214;28;20036;-66
2021/01/28 01:30:29;;;;;;;58.10;24.27;;;11.20;79.30;;;;;;5018980;28;20029;-68
2021/01/28 01:32:55;;;;;;;51.63;20.52;;;11.20;79.30;;;;;;5043576;28;20061;-67
2021/01/28 01:35:22;;;;;;;58.40;23.98;;;11.20;79.30;;;;;;5028182;28;20184;-66
2021/01/28 01:37:49;;;;;;;52.47;21.60;;;11.20;79.20;;;;;;5034166;28;20025;-67
2021/01/28 01:40:23;;;;;;;58.70;23.85;;;11.20;79.10;;;;;;5024252;28;20471;-66
2021/01/28 01:42:49;;;;;;;57.70;23.60;;;11.20;79.10;;;;;;5021664;28;20053;-66
2021/01/28 01:45:25;;;;;;;56.88;23.45;;;11.20;79.10;;;;;;5042292;28;20045;-67
2021/01/28 01:47:54;;;;;;;53.55;23.13;;;11.30;79.10;;;;;;5033151;28;20034;-66
2021/01/28 01:50:41;;;;;;;61.70;21.90;;;11.20;79.00;;;;;;5048132;28;20087;-66
2021/01/28 01:53:16;;;;;;;64.45;26.98;;;11.30;79.00;;;;;;5036965;28;20021;-71
2021/01/28 01:55:47;;;;;;;59.00;23.77;;;11.20;79.00;;;;;;5036197;28;20029;-66
2021/01/28 01:58:18;;;;;;;64.40;23.20;;;11.30;78.90;;;;;;5036654;28;20060;-69
2021/01/28 02:00:44;;;;;;;54.65;23.90;;;11.30;78.80;;;;;;5048535;28;20519;-68
2021/01/28 02:03:12;;;;;;;50.55;24.73;;;11.30;78.70;;;;;;5016324;28;20136;-66
2021/01/28 02:05:42;;;;;;;56.88;22.70;;;11.30;78.60;;;;;;4996285;28;20061;-66
2021/01/28 02:08:10;;;;;;;59.25;24.98;;;11.30;78.50;;;;;;5049815;28;20044;-73
2021/01/28 02:10:36;;;;;;;51.08;24.48;;;11.30;78.50;;;;;;5044802;28;20044;-66
2021/01/28 02:13:02;;;;;;;59.22;21.63;;;11.30;78.50;;;;;;5014327;28;20030;-67
2021/01/28 02:15:29;;;;;;;58.13;24.05;;;11.30;78.70;;;;;;5043922;28;20577;-67
2021/01/28 02:17:58;;;;;;;75.57;25.30;;;11.30;78.60;;;;;;5023021;28;20072;-67
2021/01/28 02:20:51;;;;;;;62.80;24.65;;;11.30;78.60;;;;;;5043669;28;20080;-67
2021/01/28 02:23:29;;;;;;;56.15;23.88;;;11.30;78.60;;;;;;5038982;28;20054;-67
2021/01/28 02:25:55;;;;;;;62.08;22.80;;;11.30;78.60;;;;;;5038542;28;20040;-67
2021/01/28 02:28:22;;;;;;;57.55;23.95;;;11.30;78.50;;;;;;5044229;28;20025;-67
2021/01/28 02:30:52;;;;;;;61.83;20.35;;;11.30;78.50;;;;;;5028462;28;20094;-67
2021/01/28 02:33:40;;;;;;;65.60;26.88;;;11.30;78.40;;;;;;5038095;28;20026;-69
2021/01/28 02:36:06;;;;;;;62.55;25.33;;;11.30;78.30;;;;;;5048786;28;20119;-67
2021/01/28 02:38:31;;;;;;;52.35;23.95;;;11.30;78.30;;;;;;5046656;28;20152;-67
2021/01/28 02:40:57;;;;;;;52.30;22.20;;;11.40;78.30;;;;;;5045676;28;20056;-67
2021/01/28 02:43:23;;;;;;;59.92;23.90;;;11.30;78.20;;;;;;5041381;28;20566;-69
2021/01/28 02:46:08;;;;;;;69.15;22.85;;;11.40;78.30;;;;;;5020363;28;20192;-67
2021/01/28 02:48:33;;;;;;;59.80;23.52;;;11.40;78.30;;;;;;5045544;28;20043;-67
2021/01/28 02:50:59;;;;;;;66.22;24.90;;;11.40;78.30;;;;;;5051978;28;20033;-67
2021/01/28 02:53:25;;;;;;;55.33;21.70;;;11.40;78.30;;;;;;5027347;28;20439;-67
2021/01/28 02:55:51;;;;;;;55.75;23.00;;;11.40;78.30;;;;;;5028207;28;20073;-72
2021/01/28 02:58:17;;;;;;;64.53;25.73;;;11.40;78.20;;;;;;5052924;28;20390;-68
2021/01/28 03:00:43;;;;;;;64.43;27.33;;;11.40;78.20;;;;;;5050912;28;20305;-67
2021/01/28 03:03:11;;;;;;;66.88;22.58;;;11.40;78.20;;;;;;5052848;28;20039;-67
2021/01/28 03:05:37;;;;;;;80.72;28.27;;;11.40;78.20;;;;;;5051664;28;20029;-69
2021/01/28 03:08:04;;;;;;;74.20;28.52;;;11.40;78.10;;;;;;5052269;28;20057;-67
2021/01/28 03:10:30;;;;;;;84.05;29.73;;;11.40;78.10;;;;;;5051409;28;20060;-69
2021/01/28 03:12:56;;;;;;;85.18;30.38;;;11.40;78.20;;;;;;5047376;28;20049;-66
2021/01/28 03:15:23;;;;;;;85.78;27.67;;;11.40;78.20;;;;;;5050759;28;20219;-67
2021/01/28 03:17:51;;;;;;;79.25;28.33;;;11.40;78.30;;;;;;5050064;28;20029;-67
2021/01/28 03:20:16;;;;;;;87.35;30.27;;;11.40;78.30;;;;;;5050753;28;20438;-67
2021/01/28 03:22:42;;;;;;;80.97;29.80;;;11.40;78.30;;;;;;5050184;28;20444;-67
2021/01/28 03:25:11;;;;;;;83.13;30.48;;;11.40;78.30;;;;;;5052173;28;20119;-67
2021/01/28 03:27:37;;;;;;;83.43;31.60;;;11.40;78.50;;;;;;5050207;28;20055;-67
2021/01/28 03:30:07;;;;;;;74.40;29.02;;;11.30;78.50;;;;;;5034458;28;20456;-67
2021/01/28 03:32:32;;;;;;;75.38;31.33;;;11.30;78.50;;;;;;5048929;28;20075;-67
2021/01/28 03:34:58;;;;;;;63.60;23.67;;;11.40;78.60;;;;;;5032131;28;20340;-67
2021/01/28 03:37:23;;;;;;;75.53;27.73;;;11.30;78.50;;;;;;5016405;28;20077;-67
2021/01/28 03:39:49;;;;;;;70.72;28.67;;;11.40;78.50;;;;;;5025421;28;20383;-67
2021/01/28 03:42:15;;;;;;;102.82;29.95;;;11.40;78.50;;;;;;5021978;28;20096;-67
2021/01/28 03:44:40;;;;;;;77.32;31.45;;;11.40;78.50;;;;;;5037823;28;20029;-66
2021/01/28 03:47:06;;;;;;;80.85;28.02;;;11.30;78.70;;;;;;5046121;28;20491;-67
2021/01/28 03:49:31;;;;;;;75.07;26.58;;;11.20;78.90;;;;;;5049992;28;20502;-67
2021/01/28 03:51:57;;;;;;;86.82;30.17;;;11.20;78.90;;;;;;5041456;28;20037;-69
2021/01/28 03:54:23;;;;;;;77.28;30.73;;;11.30;78.90;;;;;;5034838;28;20029;-67
2021/01/28 03:56:48;;;;;;;77.82;27.38;;;11.20;78.80;;;;;;5035481;28;20065;-67
2021/01/28 03:59:14;;;;;;;64.05;25.92;;;11.30;78.80;;;;;;5024710;28;20083;-67
2021/01/28 04:01:39;;;;;;;67.40;23.80;;;11.20;78.90;;;;;;5042830;28;20086;-66
2021/01/28 04:04:05;;;;;;;63.40;23.17;;;11.20;78.90;;;;;;5038612;28;20415;-67
2021/01/28 04:06:30;;;;;;;59.63;22.42;;;11.20;79.00;;;;;;5022541;28;20060;-66
2021/01/28 04:08:56;;;;;;;55.38;21.20;;;11.20;78.80;;;;;;5049194;28;20137;-66
2021/01/28 04:11:22;;;;;;;50.40;18.85;;;11.20;78.70;;;;;;5050975;28;20496;-67
2021/01/28 04:13:47;;;;;;;38.95;16.00;;;11.20;78.70;;;;;;5046884;28;20038;-67
2021/01/28 04:16:13;;;;;;;39.17;16.88;;;11.10;78.70;;;;;;5031791;28;20776;-66
2021/01/28 04:18:38;;;;;;;35.22;15.40;;;11.10;78.90;;;;;;5045964;28;20029;-70
2021/01/28 04:21:04;;;;;;;37.80;15.25;;;11.10;78.90;;;;;;5032330;28;20044;-67
2021/01/28 04:23:30;;;;;;;33.28;16.70;;;11.10;78.80;;;;;;5046819;28;20447;-67
2021/01/28 04:25:55;;;;;;;32.42;12.98;;;11.00;78.80;;;;;;5045742;28;20495;-69
2021/01/28 04:28:21;;;;;;;32.28;11.93;;;10.90;78.80;;;;;;5033030;28;20036;-67
2021/01/28 04:30:46;;;;;;;32.05;12.00;;;10.80;79.00;;;;;;5020672;28;20041;-67
2021/01/28 04:33:12;;;;;;;24.02;10.60;;;10.70;79.10;;;;;;5025568;28;20375;-67
2021/01/28 04:35:38;;;;;;;22.92;9.60;;;10.60;79.20;;;;;;5041071;28;20032;-67
2021/01/28 04:38:04;;;;;;;28.40;10.60;;;10.50;79.20;;;;;;5043386;28;20048;-67
2021/01/28 04:40:43;;;;;;;22.92;9.68;;;10.50;79.30;;;;;;5046282;28;20084;-67
2021/01/28 04:43:30;;;;;;;23.60;9.95;;;10.50;79.20;;;;;;5021187;28;20120;-67
2021/01/28 04:45:59;;;;;;;24.92;10.57;;;10.50;79.00;;;;;;5041750;28;20467;-67
2021/01/28 04:48:27;;;;;;;32.90;10.73;;;10.40;79.10;;;;;;5020862;28;20104;-72
2021/01/28 04:50:56;;;;;;;25.63;9.73;;;10.30;79.70;;;;;;5050787;28;20053;-68
2021/01/28 04:53:23;;;;;;;29.33;9.88;;;10.30;79.60;;;;;;5045702;28;20094;-67
2021/01/28 04:55:53;;;;;;;25.90;8.88;;;10.20;79.50;;;;;;5042378;28;20033;-67
2021/01/28 04:58:19;;;;;;;23.65;7.15;;;10.20;80.00;;;;;;5035010;28;20025;-67
2021/01/28 05:00:45;;;;;;;17.98;6.38;;;10.10;79.60;;;;;;5049046;28;20036;-67
2021/01/28 05:03:29;;;;;;;21.45;6.93;;;10.10;79.60;;;;;;5048988;28;20021;-68
2021/01/28 05:05:58;;;;;;;18.92;7.47;;;10.10;79.60;;;;;;5047548;28;20112;-68
2021/01/28 05:08:23;;;;;;;15.05;7.50;;;10.20;79.60;;;;;;5034484;28;20045;-68
2021/01/28 05:10:55;;;;;;;24.00;8.38;;;10.20;79.50;;;;;;5013190;28;20128;-66
2021/01/28 05:13:29;;;;;;;20.20;7.63;;;10.00;79.90;;;;;;5015998;28;20064;-68
2021/01/28 05:15:55;;;;;;;17.23;8.18;;;10.20;79.40;;;;;;5047038;28;20558;-67
2021/01/28 05:18:27;;;;;;;20.92;8.32;;;10.20;79.20;;;;;;5041112;28;20033;-68
2021/01/28 05:21:06;;;;;;;17.90;7.00;;;10.20;79.10;;;;;;5048785;28;20028;-68
2021/01/28 05:23:37;;;;;;;19.58;8.00;;;10.10;79.70;;;;;;5048797;28;20052;-69
2021/01/28 05:26:28;;;;;;;16.15;7.63;;;10.10;80.10;;;;;;5043897;28;20033;-68
2021/01/28 05:28:54;;;;;;;18.13;7.78;;;10.00;79.80;;;;;;5050004;28;20096;-68
2021/01/28 05:31:32;;;;;;;14.18;5.40;;;9.90;79.40;;;;;;5042749;28;20175;-68
2021/01/28 05:34:06;;;;;;;13.63;6.15;;;9.80;79.60;;;;;;5031118;28;20075;-70
2021/01/28 05:36:31;;;;;;;;;;;9.80;80.20;;;;;;5038788;28;20029;-68
2021/01/28 05:38:57;;;;;;;14.00;5.50;;;9.80;79.60;;;;;;5049801;28;19908;-68
2021/01/28 05:41:36;;;;;;;12.88;5.68;;;9.70;79.70;;;;;;5040487;28;20037;-69
2021/01/28 05:44:22;;;;;;;15.77;5.28;;;9.70;79.90;;;;;;5021296;28;20459;-68
2021/01/28 05:47:04;;;;;;;13.35;5.47;;;9.60;80.10;;;;;;5048826;28;20509;-67
2021/01/28 05:49:31;;;;;;;12.65;5.13;;;9.50;80.30;;;;;;5035131;28;20025;-68
2021/01/28 05:52:27;;;;;;;15.85;4.72;;;9.50;80.50;;;;;;5031892;28;20029;-68
2021/01/28 05:55:07;;;;;;;10.65;4.00;;;9.50;80.50;;;;;;5030749;28;20071;-68
2021/01/28 05:57:42;;;;;;;13.43;4.85;;;9.50;80.40;;;;;;5012381;28;20487;-68
2021/01/28 06:00:21;;;;;;;13.93;3.78;;;9.50;80.40;;;;;;5037001;28;20386;-70
2021/01/28 06:02:57;;;;;;;12.85;4.07;;;9.50;80.60;;;;;;5053319;28;20041;-69
2021/01/28 06:05:49;;;;;;;10.77;3.47;;;9.40;80.70;;;;;;5051452;28;20021;-68
2021/01/28 06:08:56;;;;;;;9.50;4.55;;;9.30;80.70;;;;;;5053537;28;20037;-68
2021/01/28 06:12:03;;;;;;;9.85;2.95;;;9.30;80.90;;;;;;5047864;28;20136;-70
2021/01/28 06:14:36;;;;;;;8.77;3.75;;;9.30;81.00;;;;;;4949639;29;20178;-67
2021/01/28 06:17:31;;;;;;;9.43;3.58;;;9.20;81.10;;;;;;5032250;28;20052;-66
2021/01/28 06:20:15;;;;;;;10.20;3.50;;;9.20;81.30;;;;;;5049654;28;20036;-68
2021/01/28 06:23:05;;;;;;;11.35;3.72;;;9.10;81.40;;;;;;5044602;28;20025;-68
2021/01/28 06:25:53;;;;;;;14.50;4.15;;;9.10;81.50;;;;;;5030797;28;20128;-68
2021/01/28 06:28:30;;;;;;;11.02;3.95;;;9.10;81.60;;;;;;5044216;28;20103;-68
2021/01/28 06:31:04;;;;;;;11.32;4.13;;;9.20;81.70;;;;;;5044177;28;20134;-67
2021/01/28 06:33:59;;;;;;;9.77;3.45;;;9.10;81.70;;;;;;5041512;28;20029;-65
2021/01/28 06:36:47;;;;;;;7.68;3.50;;;9.10;81.70;;;;;;5044884;28;20051;-66
2021/01/28 06:39:18;;;;;;;9.73;3.63;;;9.10;81.70;;;;;;5037680;28;20029;-72
2021/01/28 06:42:25;;;;;;;11.05;4.15;;;9.10;81.70;;;;;;5040468;28;20033;-66
2021/01/28 06:45:07;;;;;;;15.00;4.03;;;9.10;81.90;;;;;;5036465;28;20343;-69
2021/01/28 06:47:55;;;;;;;11.43;4.13;;;9.10;82.00;;;;;;5043071;28;20029;-66
2021/01/28 06:50:26;;;;;;;7.75;3.80;;;9.20;82.00;;;;;;5038120;28;20053;-65
2021/01/28 06:53:17;;;;;;;11.70;5.47;;;9.20;81.90;;;;;;5044459;28;20033;-69
2021/01/28 06:55:49;;;;;;;11.43;4.25;;;9.20;81.80;;;;;;5038305;28;20041;-65
2021/01/28 06:58:20;;;;;;;15.73;4.95;;;9.10;81.90;;;;;;5035240;28;20033;-72
2021/01/28 07:00:59;;;;;;;10.90;5.28;;;9.10;81.90;;;;;;5040748;28;20083;-71
2021/01/28 07:03:49;;;;;;;15.25;4.63;;;9.10;82.00;;;;;;5042751;28;20033;-70
2021/01/28 07:06:26;;;;;;;11.93;5.65;;;9.00;82.00;;;;;;5021993;28;20052;-65
2021/01/28 07:09:12;;;;;;;14.02;5.88;;;9.00;82.20;;;;;;5041762;28;20048;-66
2021/01/28 07:11:41;;;;;;;14.23;6.03;;;9.00;82.30;;;;;;5046182;28;20025;-66
2021/01/28 07:14:10;;;;;;;13.65;5.95;;;9.00;82.40;;;;;;5021480;28;20466;-66
2021/01/28 07:16:54;;;;;;;11.60;5.40;;;9.00;82.40;;;;;;5047304;28;20613;-67
2021/01/28 07:19:25;;;;;;;15.15;6.97;;;9.10;82.30;;;;;;5035895;28;20036;-66
2021/01/28 07:21:52;;;;;;;13.95;6.10;;;9.10;82.30;;;;;;5027781;28;20116;-67
2021/01/28 07:24:34;;;;;;;14.43;6.15;;;9.10;82.30;;;;;;5038182;28;20458;-68
2021/01/28 07:27:06;;;;;;;13.60;6.07;;;9.10;82.20;;;;;;5038284;28;20037;-67
2021/01/28 07:29:44;;;;;;;13.75;6.43;;;9.10;82.20;;;;;;5028757;28;20421;-67
2021/01/28 07:32:31;;;;;;;14.05;6.03;;;9.10;82.20;;;;;;5043087;28;20032;-67
2021/01/28 07:35:24;;;;;;;16.88;7.05;;;9.10;82.20;;;;;;5029706;28;20041;-67
2021/01/28 07:37:51;;;;;;;15.23;6.05;;;9.00;82.30;;;;;;5037235;28;20185;-66
2021/01/28 07:40:54;;;;;;;13.07;5.50;;;9.00;82.50;;;;;;5044578;28;20083;-67
2021/01/28 07:43:27;;;;;;;13.70;5.05;;;9.00;82.30;;;;;;5028762;28;20431;-67
2021/01/28 07:46:14;;;;;;;10.70;4.78;;;9.00;82.50;;;;;;5020918;28;20055;-71
2021/01/28 07:48:41;;;;;;;15.45;5.95;;;8.90;82.60;;;;;;5031039;28;20033;-67
2021/01/28 07:51:30;;;;;;;14.90;7.35;;;9.00;82.60;;;;;;5035654;28;20095;-72
2021/01/28 07:53:57;;;;;;;12.73;4.88;;;9.00;82.60;;;;;;5042259;28;20096;-67
2021/01/28 07:56:42;;;;;;;12.35;5.30;;;9.00;82.70;;;;;;5039643;28;20044;-67
2021/01/28 07:59:12;;;;;;;11.73;5.00;;;8.90;82.70;;;;;;5041578;28;20119;-73
2021/01/28 08:01:42;;;;;;;12.95;4.90;;;9.00;82.70;;;;;;5034882;28;20025;-70
2021/01/28 08:04:45;;;;;;;11.23;5.25;;;9.00;82.60;;;;;;5041166;28;20565;-68
2021/01/28 08:07:14;;;;;;;10.63;4.80;;;9.00;82.40;;;;;;5021118;28;20056;-70
2021/01/28 08:09:47;;;;;;;13.27;5.05;;;9.10;82.20;;;;;;5035944;28;20064;-68
2021/01/28 08:12:18;;;;;;;10.80;5.37;;;9.10;82.20;;;;;;5019681;28;20099;-67
2021/01/28 08:14:44;;;;;;;11.15;5.05;;;9.10;82.20;;;;;;5038523;28;20086;-68
2021/01/28 08:17:12;;;;;;;9.32;4.93;;;9.10;82.20;;;;;;5013221;28;20036;-70
2021/01/28 08:19:38;;;;;;;13.82;6.32;;;9.20;82.20;;;;;;5036579;28;20132;-70
2021/01/28 08:22:07;;;;;;;12.75;6.45;;;9.20;82.00;;;;;;5041655;28;20108;-68
2021/01/28 08:24:35;;;;;;;10.20;4.68;;;9.20;82.00;;;;;;5038205;28;20025;-67
2021/01/28 08:27:20;;;;;;;10.82;5.20;;;9.20;82.00;;;;;;5018760;28;20437;-68
2021/01/28 08:30:06;;;;;;;9.93;4.20;;;9.20;81.90;;;;;;5024813;28;20090;-67
2021/01/28 08:32:33;;;;;;;11.25;5.35;;;9.20;81.90;;;;;;5038759;28;20032;-68
2021/01/28 08:35:03;;;;;;;14.25;5.95;;;9.20;82.00;;;;;;5048612;28;20103;-68
2021/01/28 08:37:31;;;;;;;11.65;5.82;;;9.10;82.00;;;;;;5050272;28;20036;-68
2021/01/28 08:39:56;;;;;;;10.13;5.32;;;9.10;82.00;;;;;;5031924;28;20124;-69
2021/01/28 08:42:24;;;;;;;11.43;5.82;;;9.10;82.00;;;;;;5049563;28;20095;-67
2021/01/28 08:45:07;;;;;;;11.75;6.30;;;9.10;82.20;;;;;;5019761;28;20471;-67
2021/01/28 08:47:33;;;;;;;12.02;5.55;;;9.10;82.00;;;;;;5037295;28;20029;-67
2021/01/28 08:50:03;;;;;;;11.38;5.68;;;9.10;82.20;;;;;;5027643;28;20482;-68
2021/01/28 08:52:29;;;;;;;12.23;5.63;;;9.00;82.30;;;;;;5043770;28;20132;-67
2021/01/28 08:54:55;;;;;;;12.27;6.15;;;9.00;82.30;;;;;;5049157;28;20060;-68
2021/01/28 08:57:24;;;;;;;10.93;5.25;;;9.00;82.40;;;;;;5017614;28;20136;-68
2021/01/28 08:59:51;;;;;;;11.77;5.00;;;9.00;82.50;;;;;;5036475;28;20103;-67
2021/01/28 09:02:22;;;;;;;11.07;5.75;;;9.00;82.60;;;;;;5039205;28;20025;-67
2021/01/28 09:04:54;;;;;;;10.52;5.43;;;9.00;82.50;;;;;;5046432;28;20479;-68
2021/01/28 09:07:53;;;;;;;10.70;5.80;;;9.10;82.40;;;;;;5045787;28;20067;-67
2021/01/28 09:10:23;;;;;;;11.55;4.97;;;9.20;82.20;;;;;;4990124;28;20079;-67
2021/01/28 09:12:49;;;;;;;12.70;5.18;;;9.20;82.20;;;;;;5044379;28;20037;-68
2021/01/28 09:15:30;;;;;;;11.50;6.20;;;9.20;82.20;;;;;;5041599;28;20033;-67
2021/01/28 09:18:05;;;;;;;13.32;6.05;;;9.20;82.20;;;;;;5041844;28;20451;-67
2021/01/28 09:20:34;;;;;;;12.73;6.30;;;9.20;82.30;;;;;;5046628;28;20464;-68
2021/01/28 09:23:14;;;;;;;11.32;5.57;;;9.20;82.30;;;;;;5040759;28;20037;-67
2021/01/28 09:25:42;;;;;;;12.23;6.75;;;9.20;82.30;;;;;;5014104;28;20047;-67
2021/01/28 09:28:23;;;;;;;11.48;5.65;;;9.20;82.40;;;;;;5046093;28;20052;-68
2021/01/28 09:30:51;;;;;;;12.95;6.90;;;9.20;82.30;;;;;;5031920;28;20032;-65
2021/01/28 09:33:38;;;;;;;13.23;7.35;;;9.30;82.20;;;;;;5044163;28;20094;-68
2021/01/28 09:36:06;;;;;;;14.50;8.60;;;9.20;82.20;;;;;;5040043;28;20044;-65
2021/01/28 09:38:33;;;;;;;16.33;8.68;;;9.20;82.20;;;;;;5047388;28;20132;-67
2021/01/28 09:41:31;;;;;;;13.40;7.15;;;9.20;82.40;;;;;;5028410;28;20091;-67
2021/01/28 09:43:56;;;;;;;17.48;8.65;;;9.20;82.50;;;;;;5008006;28;20041;-68
2021/01/28 09:46:29;;;;;;;15.63;8.73;;;9.20;82.40;;;;;;5028141;28;20040;-68
2021/01/28 09:48:58;;;;;;;14.77;8.80;;;9.20;82.40;;;;;;5039504;28;20479;-67
2021/01/28 09:51:31;;;;;;;16.98;9.35;;;9.20;82.40;;;;;;5030431;28;20033;-69
2021/01/28 09:54:22;;;;;;;17.73;9.77;;;9.20;82.40;;;;;;5046356;28;20036;-67
2021/01/28 09:56:47;;;;;;;16.67;9.32;;;9.20;82.40;;;;;;5043000;28;20044;-67
2021/01/28 09:59:14;;;;;;;17.70;10.27;;;9.30;82.50;;;;;;5028626;28;20104;-67
2021/01/28 10:01:41;;;;;;;17.88;9.90;;;9.30;82.40;;;;;;5030796;28;20039;-67
2021/01/28 10:04:07;;;;;;;20.75;11.68;;;9.40;82.30;;;;;;5048480;28;20094;-68
2021/01/28 10:06:33;;;;;;;21.63;11.48;;;9.40;82.20;;;;;;5011660;28;20025;-67
2021/01/28 10:08:59;;;;;;;16.08;9.32;;;9.40;82.30;;;;;;5042607;28;20167;-67
2021/01/28 10:11:25;;;;;;;19.30;10.32;;;9.40;82.20;;;;;;5031248;28;20101;-67
2021/01/28 10:13:51;;;;;;;18.80;10.77;;;9.40;82.20;;;;;;5045164;28;20060;-67
2021/01/28 10:16:17;;;;;;;19.63;10.65;;;9.40;82.10;;;;;;5047586;28;20585;-69
2021/01/28 10:18:43;;;;;;;18.90;10.50;;;9.50;81.90;;;;;;5027126;28;20044;-67
2021/01/28 10:21:08;;;;;;;22.55;11.57;;;9.50;81.90;;;;;;5012997;28;20037;-67
2021/01/28 10:23:34;;;;;;;19.48;11.32;;;9.60;81.90;;;;;;5048665;28;20479;-68
2021/01/28 10:25:59;;;;;;;17.52;10.80;;;9.50;81.90;;;;;;5029949;28;20522;-68
2021/01/28 10:28:25;;;;;;;19.55;10.32;;;9.50;82.00;;;;;;5048073;28;20116;-68
2021/01/28 10:30:51;;;;;;;21.00;10.70;;;9.50;82.00;;;;;;5047102;28;20448;-72
2021/01/28 10:33:16;;;;;;;18.80;11.07;;;9.60;82.00;;;;;;5048736;28;20143;-71
2021/01/28 10:35:43;;;;;;;18.88;11.07;;;9.60;82.00;;;;;;5018131;28;20038;-66
2021/01/28 10:38:09;;;;;;;19.00;10.73;;;9.50;82.00;;;;;;5025318;28;20037;-66
2021/01/28 10:40:35;;;;;;;18.88;11.50;;;9.60;81.90;;;;;;5031738;28;20418;-66
2021/01/28 10:43:05;;;;;;;19.40;11.15;;;9.60;82.00;;;;;;5047647;28;20052;-65
2021/01/28 10:45:35;;;;;;;22.48;13.00;;;9.60;82.10;;;;;;5033548;28;20029;-66
2021/01/28 10:48:01;;;;;;;17.92;11.35;;;9.60;81.90;;;;;;5047080;28;20017;-65
2021/01/28 10:50:28;;;;;;;19.95;12.30;;;9.60;81.80;;;;;;5015545;28;20037;-66
2021/01/28 10:52:54;;;;;;;19.90;10.77;;;9.60;81.80;;;;;;5030953;28;20126;-67
2021/01/28 10:55:21;;;;;;;19.85;11.43;;;9.60;81.80;;;;;;5027990;28;20493;-66
2021/01/28 10:57:47;;;;;;;20.40;11.30;;;9.60;81.80;;;;;;5050143;28;20254;-66
2021/01/28 11:00:14;;;;;;;21.50;13.52;;;9.60;81.80;;;;;;5029248;28;20215;-67
2021/01/28 11:02:39;;;;;;;20.00;11.65;;;9.60;81.90;;;;;;5022492;28;20395;-66
2021/01/28 11:05:15;;;;;;;19.17;11.48;;;9.60;82.00;;;;;;5044348;28;20029;-67
2021/01/28 11:07:41;;;;;;;20.70;11.55;;;9.60;82.10;;;;;;5055442;28;20056;-67
2021/01/28 11:10:07;;;;;;;22.58;12.05;;;9.50;82.20;;;;;;5060878;28;20692;-66
2021/01/28 11:12:32;;;;;;;22.08;12.95;;;9.50;82.20;;;;;;5071174;28;20032;-66
2021/01/28 11:14:59;;;;;;;20.38;11.57;;;9.50;82.20;;;;;;5062527;28;20059;-68
2021/01/28 11:17:25;;;;;;;17.50;10.35;;;9.50;82.40;;;;;;5057624;28;20214;-66
2021/01/28 11:19:51;;;;;;;20.40;11.35;;;9.50;82.40;;;;;;5050385;28;20039;-68
2021/01/28 11:22:16;;;;;;;19.08;10.75;;;9.50;82.40;;;;;;5058345;28;20041;-67
2021/01/28 11:24:42;;;;;;;19.15;11.43;;;9.50;82.30;;;;;;5043090;28;20074;-67
2021/01/28 11:27:07;;;;;;;22.80;13.80;;;9.50;82.30;;;;;;5065501;28;20393;-68
2021/01/28 11:29:33;;;;;;;19.45;10.50;;;9.50;82.40;;;;;;5070522;28;20035;-66
2021/01/28 11:31:59;;;;;;;19.02;10.60;;;9.50;82.40;;;;;;5072242;28;20480;-67
2021/01/28 11:34:27;;;;;;;17.40;9.63;;;9.50;82.40;;;;;;5051233;28;20039;-67
2021/01/28 11:36:53;;;;;;;18.10;10.30;;;9.50;82.50;;;;;;5053444;28;20063;-67
2021/01/28 11:39:19;;;;;;;15.25;9.07;;;9.50;82.40;;;;;;5060663;28;20033;-68
2021/01/28 11:41:45;;;;;;;19.05;9.02;;;9.60;82.30;;;;;;5068743;28;20028;-67
2021/01/28 11:44:11;;;;;;;13.85;8.18;;;9.60;82.20;;;;;;5065620;28;20124;-66
2021/01/28 11:46:36;;;;;;;17.58;9.88;;;9.60;81.90;;;;;;5058024;28;20127;-67
2021/01/28 11:49:02;;;;;;;14.98;9.45;;;9.60;82.10;;;;;;5061487;28;20036;-67
2021/01/28 11:51:28;;;;;;;14.93;9.23;;;9.50;82.10;;;;;;5067719;28;20439;-68
2021/01/28 11:53:53;;;;;;;12.63;7.18;;;9.60;82.30;;;;;;5056450;28;20037;-68
2021/01/28 11:56:19;;;;;;;17.95;9.70;;;9.60;82.20;;;;;;5053978;28;20051;-66
2021/01/28 11:58:45;;;;;;;16.35;10.13;;;9.60;82.10;;;;;;5057624;28;20032;-68
2021/01/28 12:01:11;;;;;;;16.83;10.75;;;9.70;82.10;;;;;;5047913;28;20033;-68
2021/01/28 12:03:36;;;;;;;15.82;9.80;;;9.70;81.90;;;;;;5067748;28;20046;-68
2021/01/28 12:06:02;;;;;;;17.40;10.73;;;9.70;81.90;;;;;;5066127;28;20028;-66
2021/01/28 12:08:28;;;;;;;17.48;10.55;;;9.70;81.90;;;;;;5088213;28;20048;-66
2021/01/28 12:10:54;;;;;;;16.23;9.77;;;9.70;82.00;;;;;;5071252;28;20035;-65
2021/01/28 12:13:20;;;;;;;17.48;9.70;;;9.60;82.10;;;;;;5073968;28;20028;-71
2021/01/28 12:15:46;;;;;;;15.02;8.77;;;9.70;82.20;;;;;;5069483;28;20044;-67
2021/01/28 12:18:11;;;;;;;16.45;9.25;;;9.70;82.20;;;;;;5070670;28;20032;-65
2021/01/28 12:20:37;;;;;;;17.50;9.15;;;9.70;82.10;;;;;;5069867;28;20767;-65
2021/01/28 12:23:02;;;;;;;15.43;9.73;;;9.70;81.90;;;;;;5059755;28;20475;-65
2021/01/28 12:25:28;;;;;;;15.73;8.25;;;9.70;82.00;;;;;;5055343;28;20037;-65
2021/01/28 12:27:54;;;;;;;15.95;9.55;;;9.60;82.10;;;;;;5070282;28;20475;-65
2021/01/28 12:30:22;;;;;;;15.43;9.07;;;9.60;82.20;;;;;;5054534;28;20025;-68
2021/01/28 12:32:48;;;;;;;16.10;9.98;;;9.60;82.20;;;;;;5066458;28;20020;-67
2021/01/28 12:35:16;;;;;;;14.93;8.32;;;9.60;82.20;;;;;;5063817;28;20475;-66
2021/01/28 12:37:41;;;;;;;15.88;8.25;;;9.50;82.30;;;;;;5067712;28;20471;-66
2021/01/28 12:40:09;;;;;;;19.55;11.25;;;9.60;82.50;;;;;;5056036;28;20032;-66
2021/01/28 12:42:35;;;;;;;17.38;10.20;;;9.60;82.40;;;;;;5052854;28;20029;-68
2021/01/28 12:45:01;;;;;;;13.55;7.57;;;9.70;82.20;;;;;;5062499;28;20036;-66
2021/01/28 12:47:27;;;;;;;12.52;7.50;;;9.60;82.10;;;;;;5069865;28;20063;-66
2021/01/28 12:49:53;;;;;;;13.88;7.78;;;9.60;82.00;;;;;;5058451;28;20598;-67
2021/01/28 12:52:20;;;;;;;12.65;6.90;;;9.60;82.00;;;;;;5061113;28;20058;-66
2021/01/28 12:54:45;;;;;;;13.70;7.22;;;9.60;82.00;;;;;;5060737;28;20040;-66
2021/01/28 12:57:11;;;;;;;11.15;6.95;;;9.60;82.10;;;;;;5060261;28;20043;-68